createdAt,value
2019-03-06T00:02:41.100Z,100480.92
2019-03-06T00:06:46.447Z,100473.55
2019-03-06T00:10:52.162Z,100474.17
2019-03-06T00:14:57.608Z,100460.13
2019-03-06T00:19:03.078Z,100457.87
2019-03-06T00:23:08.815Z,100451.03
2019-03-06T00:27:14.320Z,100452.44
2019-03-06T00:31:20.020Z,100452.23
2019-03-06T00:35:28.327Z,100450.73
2019-03-06T00:39:41.839Z,100443.05
2019-03-06T00:43:47.290Z,100442.07
2019-03-06T00:47:52.903Z,100432.31
2019-03-06T00:51:58.624Z,100428.91
2019-03-06T00:56:04.099Z,100421.75
2019-03-06T01:00:09.883Z,100417.78
2019-03-06T01:04:15.219Z,100422.42
2019-03-06T01:08:20.991Z,100419.81
2019-03-06T01:12:33.127Z,100414.87
2019-03-06T01:16:38.554Z,100415.89
2019-03-06T01:20:44.001Z,100416.53
2019-03-06T01:25:00.451Z,100414.68
2019-03-06T01:29:06.243Z,100407.63
2019-03-06T01:33:36.362Z,100392.07
2019-03-06T01:38:18.891Z,100386.90
2019-03-06T01:42:30.324Z,100377.14
2019-03-06T01:46:50.402Z,100374.53
2019-03-06T01:50:55.767Z,100360.66
2019-03-06T01:55:01.828Z,100356.73
2019-03-06T01:59:17.123Z,100344.92
2019-03-06T02:03:31.046Z,100343.86
2019-03-06T02:07:45.888Z,100343.20
2019-03-06T02:11:51.363Z,100338.75
2019-03-06T02:15:59.508Z,100336.84
2019-03-06T02:20:05.708Z,100328.48
2019-03-06T02:24:11.135Z,100325.70
2019-03-06T02:28:16.479Z,100312.17
2019-03-06T02:32:21.913Z,100300.73
2019-03-06T02:36:27.440Z,100297.58
2019-03-06T02:40:32.861Z,100284.62
2019-03-06T02:44:40.112Z,100278.83
2019-03-06T02:48:45.436Z,100273.16
2019-03-06T02:52:50.874Z,100265.27
2019-03-06T02:56:56.224Z,100263.36
2019-03-06T03:01:32.684Z,100257.49
2019-03-06T03:05:43.217Z,100256.57
2019-03-06T03:09:48.580Z,100242.51
2019-03-06T03:13:53.935Z,100243.44
2019-03-06T03:17:59.615Z,100232.48
2019-03-06T03:22:05.045Z,100222.97
2019-03-06T03:26:10.531Z,100226.39
2019-03-06T03:30:16.375Z,100235.08
2019-03-06T03:34:22.032Z,100233.64
2019-03-06T03:38:27.580Z,100223.44
2019-03-06T03:42:33.020Z,100218.30
2019-03-06T03:46:38.670Z,100216.04
2019-03-06T03:50:44.369Z,100212.94
2019-03-06T03:54:49.694Z,100197.86
2019-03-06T03:58:55.158Z,100191.77
2019-03-06T04:03:00.710Z,100190.17
2019-03-06T04:07:06.172Z,100184.78
2019-03-06T04:11:11.592Z,100185.63
2019-03-06T04:15:17.172Z,100181.45
2019-03-06T04:19:22.599Z,100180.23
2019-03-06T04:23:28.228Z,100181.00
2019-03-06T04:27:33.640Z,100182.45
2019-03-06T04:31:39.311Z,100171.73
2019-03-06T04:35:44.847Z,100166.78
2019-03-06T04:39:50.192Z,100161.16
2019-03-06T04:43:55.884Z,100154.37
2019-03-06T04:48:01.234Z,100145.17
2019-03-06T04:52:06.715Z,100146.20
2019-03-06T04:56:12.150Z,100135.05
2019-03-06T05:00:17.839Z,100123.97
2019-03-06T05:04:23.267Z,100126.71
2019-03-06T05:08:28.623Z,100128.91
2019-03-06T05:12:34.005Z,100118.75
2019-03-06T05:17:00.133Z,100119.44
2019-03-06T05:21:05.638Z,100117.31
2019-03-06T05:25:11.198Z,100107.48
2019-03-06T05:29:16.698Z,100093.70
2019-03-06T05:33:22.397Z,100085.06
2019-03-06T05:38:09.724Z,100062.98
2019-03-06T05:42:15.182Z,100066.41
2019-03-06T05:46:20.791Z,100049.59
2019-03-06T05:50:26.240Z,100044.64
2019-03-06T05:54:31.624Z,100032.06
2019-03-06T05:58:37.213Z,100023.55
2019-03-06T06:02:42.620Z,100005.73
2019-03-06T06:06:48.062Z,99995.99
2019-03-06T06:10:53.469Z,99994.03
2019-03-06T06:14:58.729Z,99977.58
2019-03-06T06:19:04.052Z,99978.31
2019-03-06T06:23:34.213Z,99975.22
2019-03-06T06:27:39.959Z,99971.99
2019-03-06T06:31:45.303Z,99966.59
2019-03-06T06:35:50.914Z,99965.02
2019-03-06T06:39:56.615Z,99957.86
2019-03-06T06:44:02.133Z,99962.66
2019-03-06T06:48:19.391Z,99953.78
2019-03-06T06:53:38.116Z,99942.81
2019-03-06T06:58:51.565Z,99938.73
2019-03-06T07:04:26.443Z,99922.70
2019-03-06T07:08:49.393Z,99917.73
2019-03-06T07:13:12.811Z,99906.36
2019-03-06T07:17:45.905Z,99898.55
2019-03-06T07:21:57.119Z,99882.83
2019-03-06T07:26:30.266Z,99886.07
2019-03-06T07:31:00.348Z,99881.25
2019-03-06T07:36:16.391Z,99877.79
2019-03-06T07:40:27.674Z,99876.55
2019-03-06T07:44:59.898Z,99882.36
2019-03-06T07:49:45.120Z,99877.97
2019-03-06T07:54:08.204Z,99862.97
2019-03-06T07:58:53.124Z,99865.64
2019-03-06T08:03:15.344Z,99846.09
2019-03-06T08:07:20.685Z,99845.80
2019-03-06T08:11:33.028Z,99839.91
2019-03-06T08:15:47.866Z,99835.05
2019-03-06T08:20:19.250Z,99827.34
2019-03-06T08:24:30.789Z,99827.14
2019-03-06T08:28:36.283Z,99827.16
2019-03-06T08:32:41.699Z,99822.26
2019-03-06T08:36:47.048Z,99824.28
2019-03-06T08:40:53.057Z,99832.95
2019-03-06T08:44:58.790Z,99822.97
2019-03-06T08:49:43.043Z,99819.45
2019-03-06T08:54:00.977Z,99821.28
2019-03-06T08:58:40.350Z,99802.84
2019-03-06T09:03:06.291Z,99790.88
2019-03-06T09:07:30.981Z,99801.47
2019-03-06T09:11:43.941Z,99785.34
2019-03-06T09:16:06.961Z,99772.05
2019-03-06T09:20:37.151Z,99752.03
2019-03-06T09:25:02.291Z,99738.61
2019-03-06T09:29:25.273Z,99725.89
2019-03-06T09:33:52.631Z,99716.14
2019-03-06T09:38:19.754Z,99703.94
2019-03-06T09:43:02.362Z,99707.92
2019-03-06T09:47:27.113Z,99713.28
2019-03-06T09:51:54.302Z,99713.03
2019-03-06T09:56:14.086Z,99706.22
2019-03-06T10:00:45.403Z,99692.64
2019-03-06T10:05:15.841Z,99682.84
2019-03-06T10:09:28.608Z,99675.85
2019-03-06T10:13:52.310Z,99690.03
2019-03-06T10:18:08.292Z,99678.42
2019-03-06T10:22:13.717Z,99685.50
2019-03-06T10:26:19.149Z,99674.64
2019-03-06T10:30:24.581Z,99673.05
2019-03-06T10:34:30.450Z,99676.13
2019-03-06T10:38:38.792Z,99682.12
2019-03-06T10:42:44.227Z,99682.77
2019-03-06T10:46:49.729Z,99676.31
2019-03-06T10:50:55.167Z,99671.05
2019-03-06T10:55:00.580Z,99661.46
2019-03-06T10:59:06.439Z,99649.53
2019-03-06T11:03:11.950Z,99641.53
2019-03-06T11:07:17.576Z,99630.84
2019-03-06T11:11:23.079Z,99622.84
2019-03-06T11:15:28.478Z,99629.66
2019-03-06T11:19:34.054Z,99620.77
2019-03-06T11:23:39.547Z,99601.86
2019-03-06T11:27:44.992Z,99597.77
2019-03-06T11:31:50.481Z,99594.12
2019-03-06T11:35:57.202Z,99573.11
2019-03-06T11:40:03.267Z,99566.09
2019-03-06T11:44:09.288Z,99561.95
2019-03-06T11:48:15.231Z,99543.89
2019-03-06T11:52:22.548Z,99536.53
2019-03-06T11:56:28.532Z,99530.32
2019-03-06T12:00:37.435Z,99524.25
2019-03-06T12:04:42.873Z,99517.81
2019-03-06T12:08:48.293Z,99504.55
2019-03-06T12:12:53.969Z,99499.03
2019-03-06T12:16:59.388Z,99496.84
2019-03-06T12:21:05.211Z,99497.28
2019-03-06T12:25:11.960Z,99490.64
2019-03-06T12:29:17.411Z,99472.02
2019-03-06T12:33:26.254Z,99467.79
2019-03-06T12:37:32.621Z,99457.59
2019-03-06T12:41:38.369Z,99443.28
2019-03-06T12:46:27.389Z,99440.11
2019-03-06T12:50:33.229Z,99439.47
2019-03-06T12:54:39.519Z,99433.98
2019-03-06T12:58:44.973Z,99445.78
2019-03-06T13:02:50.636Z,99430.00
2019-03-06T13:06:56.099Z,99429.54
2019-03-06T13:11:01.442Z,99425.09
2019-03-06T13:15:08.590Z,99414.83
2019-03-06T13:19:14.094Z,99400.60
2019-03-06T13:23:19.607Z,99390.17
2019-03-06T13:27:24.988Z,99373.31
2019-03-06T13:31:30.420Z,99360.91
2019-03-06T13:35:36.521Z,99367.31
2019-03-06T13:39:41.990Z,99371.79
2019-03-06T13:43:47.595Z,99381.06
2019-03-06T13:47:53.290Z,99376.16
2019-03-06T13:51:59.220Z,99388.06
2019-03-06T13:56:06.360Z,99371.73
2019-03-06T14:00:15.318Z,99371.76
2019-03-06T14:04:20.717Z,99380.29
2019-03-06T14:08:26.139Z,99384.36
2019-03-06T14:12:31.579Z,99387.11
2019-03-06T14:16:37.458Z,99370.88
2019-03-06T14:20:42.890Z,99370.14
2019-03-06T14:24:48.590Z,99378.80
2019-03-06T14:28:54.007Z,99379.75
2019-03-06T14:32:59.515Z,99388.36
2019-03-06T14:37:05.390Z,99387.38
2019-03-06T14:41:26.467Z,99391.53
2019-03-06T14:45:45.872Z,99378.59
2019-03-06T14:49:54.456Z,99364.59
2019-03-06T14:54:02.521Z,99353.31
2019-03-06T14:58:10.160Z,99351.34
2019-03-06T15:02:15.663Z,99339.92
2019-03-06T15:06:21.111Z,99339.09
2019-03-06T15:10:26.905Z,99328.22
2019-03-06T15:14:36.206Z,99304.24
2019-03-06T15:18:39.854Z,99306.45
2019-03-06T15:22:45.279Z,99304.19
2019-03-06T15:26:51.251Z,99302.80
2019-03-06T15:30:56.673Z,99292.42
2019-03-06T15:35:02.204Z,99290.13
2019-03-06T15:39:42.566Z,99286.89
2019-03-06T15:43:41.758Z,99280.71
2019-03-06T15:47:47.490Z,99276.77
2019-03-06T15:51:53.043Z,99261.61
2019-03-06T15:55:58.742Z,99252.56
2019-03-06T16:00:04.818Z,99251.08
2019-03-06T16:04:10.350Z,99243.62
2019-03-06T16:08:15.986Z,99247.35
2019-03-06T16:12:21.705Z,99251.45
2019-03-06T16:16:27.366Z,99244.00
2019-03-06T16:20:32.792Z,99241.42
2019-03-06T16:24:38.221Z,99245.42
2019-03-06T16:28:43.963Z,99230.00
2019-03-06T16:32:50.108Z,99229.23
2019-03-06T16:36:55.539Z,99222.09
2019-03-06T16:41:01.146Z,99222.55
2019-03-06T16:45:06.816Z,99216.83
2019-03-06T16:49:12.316Z,99229.34
2019-03-06T16:53:18.259Z,99228.50
2019-03-06T16:57:23.925Z,99227.22
2019-03-06T17:01:29.672Z,99228.90
2019-03-06T17:05:35.566Z,99229.95
2019-03-06T17:09:41.035Z,99223.50
2019-03-06T17:13:46.465Z,99216.58
2019-03-06T17:17:52.955Z,99227.97
2019-03-06T17:21:58.460Z,99228.36
2019-03-06T17:26:03.874Z,99232.11
2019-03-06T17:30:13.760Z,99231.32
2019-03-06T17:34:19.154Z,99235.81
2019-03-06T17:38:24.610Z,99232.77
2019-03-06T17:42:30.058Z,99223.95
2019-03-06T17:46:35.649Z,99217.96
2019-03-06T17:50:41.567Z,99213.88
2019-03-06T17:54:47.014Z,99216.51
2019-03-06T17:58:52.435Z,99218.13
2019-03-06T18:02:58.754Z,99209.34
2019-03-06T18:07:06.083Z,99194.69
2019-03-06T18:11:11.724Z,99185.00
2019-03-06T18:15:17.922Z,99177.96
2019-03-06T18:19:23.676Z,99168.51
2019-03-06T18:23:29.478Z,99159.58
2019-03-06T18:27:34.863Z,99156.34
2019-03-06T18:31:40.417Z,99148.50
2019-03-06T18:35:45.824Z,99157.79
2019-03-06T18:39:51.463Z,99157.95
2019-03-06T18:43:57.268Z,99153.42
2019-03-06T18:48:03.010Z,99160.41
2019-03-06T18:52:08.474Z,99158.49
2019-03-06T18:56:13.942Z,99150.95
2019-03-06T19:00:21.035Z,99144.12
2019-03-06T19:04:26.790Z,99128.66
2019-03-06T19:08:32.334Z,99128.62
2019-03-06T19:12:37.807Z,99134.97
2019-03-06T19:16:43.189Z,99129.80
2019-03-06T19:20:48.921Z,99113.56
2019-03-06T19:24:54.640Z,99120.72
2019-03-06T19:29:00.164Z,99117.94
2019-03-06T19:33:06.092Z,99114.70
2019-03-06T19:37:11.556Z,99112.55
2019-03-06T19:41:17.493Z,99109.11
2019-03-06T19:45:23.115Z,99111.86
2019-03-06T19:49:28.924Z,99109.09
2019-03-06T19:53:34.726Z,99099.77
2019-03-06T19:58:03.561Z,99118.59
2019-03-06T20:02:09.157Z,99110.93
2019-03-06T20:06:14.690Z,99106.63
2019-03-06T20:10:20.512Z,99096.88
2019-03-06T20:14:26.065Z,99103.15
2019-03-06T20:18:32.385Z,99096.02
2019-03-06T20:22:38.684Z,99085.95
2019-03-06T20:26:44.162Z,99079.98
2019-03-06T20:30:49.965Z,99074.91
2019-03-06T20:34:55.765Z,99082.19
2019-03-06T20:39:04.888Z,99081.19
2019-03-06T20:43:15.294Z,99085.28
2019-03-06T20:47:21.044Z,99082.59
2019-03-06T20:51:28.149Z,99078.93
2019-03-06T20:55:33.705Z,99074.22
2019-03-06T20:59:56.070Z,99087.73
2019-03-06T21:04:01.907Z,99078.28
2019-03-06T21:08:10.604Z,99070.56
2019-03-06T21:12:16.668Z,99070.20
2019-03-06T21:16:22.085Z,99066.48
2019-03-06T21:20:37.320Z,99056.61
2019-03-06T21:24:43.038Z,99055.89
2019-03-06T21:28:48.675Z,99053.96
2019-03-06T21:32:55.614Z,99049.05
2019-03-06T21:37:02.681Z,99045.45
2019-03-06T21:41:08.866Z,99040.61
2019-03-06T21:45:14.870Z,99040.23
2019-03-06T21:49:20.581Z,99034.60
2019-03-06T21:53:26.595Z,99024.95
2019-03-06T21:57:36.575Z,99023.41
2019-03-06T22:01:42.648Z,99019.41
2019-03-06T22:05:50.515Z,99014.81
2019-03-06T22:09:56.204Z,99013.44
2019-03-06T22:14:01.649Z,99009.78
2019-03-06T22:18:07.574Z,99005.10
2019-03-06T22:22:13.483Z,98998.22
2019-03-06T22:26:23.915Z,98995.99
2019-03-06T22:30:32.470Z,98991.34
2019-03-06T22:34:38.182Z,98983.84
2019-03-06T22:38:48.043Z,98978.11
2019-03-06T22:42:57.759Z,98977.87
2019-03-06T22:47:04.401Z,98969.73
2019-03-06T22:51:10.104Z,98965.83
2019-03-06T22:55:16.754Z,98957.34
2019-03-06T22:59:22.383Z,98953.80
2019-03-06T23:03:30.706Z,98947.11
2019-03-06T23:07:36.537Z,98930.88
2019-03-06T23:11:42.889Z,98925.56
2019-03-06T23:15:48.451Z,98922.19
2019-03-06T23:19:53.857Z,98917.44
2019-03-06T23:23:59.271Z,98913.17
2019-03-06T23:28:04.682Z,98902.20
2019-03-06T23:32:10.485Z,98899.39
2019-03-06T23:36:15.844Z,98887.48
2019-03-06T23:40:21.525Z,98880.11
2019-03-06T23:44:27.008Z,98874.50
2019-03-06T23:48:32.689Z,98873.44
2019-03-06T23:52:57.601Z,98859.43
2019-03-06T23:57:03.135Z,98856.40
